TimeEDT,TemperatureF,Dew PointF,Humidity,Sea Level PressureIn,VisibilityMPH,Wind Direction,Wind SpeedMPH,Gust SpeedMPH,PrecipitationIn,Events,Conditions,WindDirDegrees,DateUTC
12:53 AM,81.0,75.0,82,29.99,10.0,SW,5.8,-,N/A,,Partly Cloudy,230,2012-09-10 04:53:00
1:53 AM,82.0,75.9,82,29.97,10.0,West,6.9,-,N/A,,Partly Cloudy,260,2012-09-10 05:53:00
2:53 AM,81.0,75.9,85,29.95,10.0,West,3.5,-,N/A,,Partly Cloudy,270,2012-09-10 06:53:00
3:53 AM,80.1,75.9,87,29.95,10.0,SSW,5.8,-,N/A,,Partly Cloudy,210,2012-09-10 07:53:00
4:53 AM,80.1,75.9,87,29.94,10.0,Calm,Calm,-,N/A,,Partly Cloudy,0,2012-09-10 08:53:00
5:53 AM,80.1,75.9,87,29.96,10.0,WNW,5.8,-,N/A,,Partly Cloudy,290,2012-09-10 09:53:00
6:53 AM,79.0,75.9,90,29.98,10.0,SW,3.5,-,N/A,,Partly Cloudy,220,2012-09-10 10:53:00
7:53 AM,80.1,75.9,87,30.00,10.0,SW,4.6,-,N/A,,Partly Cloudy,220,2012-09-10 11:53:00
8:53 AM,82.9,75.9,79,30.00,10.0,West,6.9,-,N/A,,Partly Cloudy,260,2012-09-10 12:53:00
9:53 AM,86.0,75.0,70,30.00,10.0,West,9.2,-,N/A,,Partly Cloudy,280,2012-09-10 13:53:00
10:53 AM,88.0,73.9,63,30.01,10.0,WSW,8.1,-,N/A,,Scattered Clouds,240,2012-09-10 14:53:00
11:53 AM,88.0,70.0,55,30.01,10.0,West,10.4,16.1,N/A,,Partly Cloudy,260,2012-09-10 15:53:00
12:53 PM,91.0,69.1,48,29.99,10.0,West,11.5,20.7,N/A,,Scattered Clouds,260,2012-09-10 16:53:00
1:41 PM,89.6,73.4,59,29.98,10.0,NW,12.7,-,N/A,,Mostly Cloudy,310,2012-09-10 17:41:00
1:53 PM,88.0,72.0,59,29.99,10.0,WNW,11.5,-,N/A,,Mostly Cloudy,300,2012-09-10 17:53:00
2:53 PM,88.0,73.0,61,29.96,10.0,NW,8.1,-,N/A,,Scattered Clouds,310,2012-09-10 18:53:00
3:53 PM,88.0,72.0,59,29.96,10.0,West,11.5,-,0.00,,Scattered Clouds,280,2012-09-10 19:53:00
4:53 PM,89.1,73.0,59,29.96,10.0,NW,8.1,-,N/A,,Scattered Clouds,320,2012-09-10 20:53:00
5:53 PM,87.1,73.9,65,29.97,10.0,NNW,11.5,-,N/A,,Mostly Cloudy,330,2012-09-10 21:53:00
6:53 PM,84.9,73.0,67,29.99,10.0,NNW,8.1,-,N/A,,Scattered Clouds,330,2012-09-10 22:53:00
7:38 PM,84.2,75.2,74,29.99,10.0,NW,5.8,-,N/A,Thunderstorm,Thunderstorm,320,2012-09-10 23:38:00
7:53 PM,84.0,73.9,72,29.99,10.0,NW,8.1,-,N/A,Thunderstorm,Thunderstorm,320,2012-09-10 23:53:00
8:34 PM,84.2,73.4,70,29.99,10.0,Calm,Calm,-,N/A,,Scattered Clouds,0,2012-09-11 00:34:00
8:53 PM,84.0,73.9,72,30.00,10.0,WNW,4.6,-,N/A,,Scattered Clouds,300,2012-09-11 00:53:00
9:53 PM,81.0,75.0,82,30.00,10.0,WSW,4.6,-,N/A,,Scattered Clouds,240,2012-09-11 01:53:00
10:53 PM,81.0,73.9,79,30.01,10.0,West,4.6,-,N/A,,Clear,260,2012-09-11 02:53:00
11:53 PM,81.0,73.9,79,30.01,10.0,WNW,3.5,-,N/A,,Partly Cloudy,290,2012-09-11 03:53:00